Time;durP1;ratioP1;P1;durP2;ratioP2;P2;SDS_P1;SDS_P2;PMS_P1;PMS_P2;Temp;Humidity;BMP_temperature;BMP_pressure;BME280_temperature;BME280_humidity;BME280_pressure;Samples;Min_cycle;Max_cycle;Signal;HPM_P1;HPM_P2
2022/03/14 00:02:12;;;;;;;;;;;;;;;6.28;49.79;98063.34;5122936;28;19959;-59
2022/03/14 00:04:38;;;;;;;;;;;;;;;6.41;49.36;98058.59;5122871;28;19923;-59
2022/03/14 00:07:05;;;;;;;;;;;;;;;6.45;49.32;98067.72;5111342;28;20031;-60
2022/03/14 00:09:31;;;;;;;;;;;;;;;6.40;50.05;98077.41;5124112;28;20420;-58
2022/03/14 00:12:00;;;;;;;;;;;;;;;6.38;50.06;98082.94;5121815;28;20035;-60
2022/03/14 00:14:27;;;;;;;;;;;;;;;6.27;50.05;98078.44;5123002;28;19946;-60
2022/03/14 00:16:55;;;;;;;;;;;;;;;6.28;50.41;98089.88;5120830;28;19924;-60
2022/03/14 00:19:22;;;;;;;;;;;;;;;6.35;50.40;98085.22;5119328;28;20401;-60
2022/03/14 00:21:49;;;;;;;;;;;;;;;6.40;50.64;98091.47;5120471;28;19924;-60
2022/03/14 00:24:15;;;;;;;;;;;;;;;6.44;50.58;98089.97;5122668;28;19945;-60
2022/03/14 00:26:42;;;;;;;;;;;;;;;6.45;50.54;98086.28;5122413;28;19924;-59
2022/03/14 00:29:10;;;;;;;;;;;;;;;6.41;50.73;98093.06;5119101;28;19928;-60
2022/03/14 00:31:37;;;;;;;;;;;;;;;6.13;51.29;98094.81;5119193;28;19955;-59
2022/03/14 00:34:03;;;;;;;;;;;;;;;6.28;50.83;98108.44;5122331;28;19955;-60
2022/03/14 00:36:30;;;;;;;;;;;;;;;6.36;51.02;98106.25;5122673;28;19924;-60
2022/03/14 00:38:56;;;;;;;;;;;;;;;6.40;50.69;98112.72;5125760;28;20239;-60
2022/03/14 00:41:23;;;;;;;;;;;;;;;6.37;50.46;98112.34;5118712;28;19928;-60
2022/03/14 00:43:49;;;;;;;;;;;;;;;6.39;50.35;98110.25;5120211;28;20018;-59
2022/03/14 00:46:17;;;;;;;;;;;;;;;6.08;51.02;98124.66;5122436;28;19963;-59
2022/03/14 00:48:44;;;;;;;;;;;;;;;6.14;50.94;98118.44;5122002;28;19942;-60
2022/03/14 00:51:11;;;;;;;;;;;;;;;6.08;51.30;98126.50;5118885;28;19996;-59
2022/03/14 00:53:37;;;;;;;;;;;;;;;6.17;51.04;98125.94;5118463;28;19995;-59
2022/03/14 00:56:05;;;;;;;;;;;;;;;6.23;50.85;98125.03;5121711;28;19924;-59
2022/03/14 00:58:33;;;;;;;;;;;;;;;6.23;51.04;98127.69;5122052;28;19954;-60
2022/03/14 01:00:59;;;;;;;;;;;;;;;6.22;51.13;98117.31;5119120;28;19950;-59
2022/03/14 01:03:27;;;;;;;;;;;;;;;5.59;52.95;98112.56;5118494;28;19935;-60
2022/03/14 01:05:55;;;;;;;;;;;;;;;5.45;53.82;98105.81;5120069;28;19924;-60
2022/03/14 01:08:22;;;;;;;;;;;;;;;5.21;55.78;98102.28;5127532;28;19945;-59
2022/03/14 01:10:48;;;;;;;;;;;;;;;5.34;56.01;98112.69;5120645;28;19923;-60
2022/03/14 01:13:15;;;;;;;;;;;;;;;5.71;54.47;98120.53;5100164;28;19946;-59
2022/03/14 01:15:41;;;;;;;;;;;;;;;5.85;53.83;98125.41;5118369;28;19999;-60
2022/03/14 01:18:07;;;;;;;;;;;;;;;5.93;53.65;98140.19;5122092;28;19927;-60
2022/03/14 01:20:35;;;;;;;;;;;;;;;6.02;53.30;98145.97;5125851;28;19924;-60
2022/03/14 01:23:02;;;;;;;;;;;;;;;6.04;53.44;98155.31;5122578;28;19924;-60
2022/03/14 01:25:28;;;;;;;;;;;;;;;6.06;53.42;98152.44;5122188;28;20022;-59
2022/03/14 01:27:55;;;;;;;;;;;;;;;6.06;53.44;98147.97;5124159;28;19920;-60
2022/03/14 01:30:21;;;;;;;;;;;;;;;6.05;52.88;98142.88;5125783;28;19996;-60
2022/03/14 01:32:48;;;;;;;;;;;;;;;5.95;52.97;98138.13;5124313;28;19946;-60
2022/03/14 01:35:14;;;;;;;;;;;;;;;5.93;52.95;98143.66;5122097;28;19980;-60
2022/03/14 01:37:42;;;;;;;;;;;;;;;5.89;52.81;98139.03;5127739;28;20223;-59
2022/03/14 01:40:09;;;;;;;;;;;;;;;5.92;52.80;98147.34;5107139;28;19945;-59
2022/03/14 01:42:37;;;;;;;;;;;;;;;5.84;53.25;98138.88;5125505;28;19931;-60
2022/03/14 01:45:04;;;;;;;;;;;;;;;5.28;55.61;98136.63;5121866;28;19973;-59
2022/03/14 01:47:32;;;;;;;;;;;;;;;4.92;58.33;98136.66;5121842;28;19924;-60
2022/03/14 01:49:59;;;;;;;;;;;;;;;5.10;57.99;98155.16;5124242;28;19931;-60
2022/03/14 01:52:25;;;;;;;;;;;;;;;5.32;57.22;98169.56;5125191;28;19934;-59
2022/03/14 01:54:53;;;;;;;;;;;;;;;5.55;56.32;98176.78;5123438;28;20597;-60
2022/03/14 01:57:19;;;;;;;;;;;;;;;5.71;55.49;98163.72;5121742;28;19924;-60
2022/03/14 01:59:46;;;;;;;;;;;;;;;5.47;56.03;98169.16;5122251;28;19924;-60
2022/03/14 02:02:12;;;;;;;;;;;;;;;5.51;55.78;98171.13;5107076;28;19924;-60
2022/03/14 02:04:38;;;;;;;;;;;;;;;5.59;55.65;98170.03;5124975;28;20144;-59
2022/03/14 02:07:05;;;;;;;;;;;;;;;5.67;55.48;98175.00;5122526;28;20003;-59
2022/03/14 02:09:31;;;;;;;;;;;;;;;5.50;55.96;98179.31;5126332;28;19924;-59
2022/03/14 02:12:07;;;;;;;;;;;;;;;5.55;55.82;98187.38;5123698;28;19995;-59
2022/03/14 02:14:36;;;;;;;;;;;;;;;5.64;55.64;98186.84;5124976;28;19924;-60
2022/03/14 02:17:02;;;;;;;;;;;;;;;5.67;55.32;98186.41;5103565;28;19931;-60
2022/03/14 02:19:29;;;;;;;;;;;;;;;5.69;55.26;98194.16;5121247;28;19934;-59
2022/03/14 02:21:56;;;;;;;;;;;;;;;5.70;55.08;98198.38;5123433;28;19924;-59
2022/03/14 02:24:26;;;;;;;;;;;;;;;5.67;55.09;98196.19;5106765;28;19959;-59
2022/03/14 02:26:53;;;;;;;;;;;;;;;5.43;56.09;98205.88;5122717;28;19955;-60
2022/03/14 02:29:19;;;;;;;;;;;;;;;5.50;56.03;98195.22;5121190;28;19924;-60
2022/03/14 02:31:47;;;;;;;;;;;;;;;5.57;55.99;98211.84;5121267;28;19951;-60
2022/03/14 02:34:14;;;;;;;;;;;;;;;5.56;55.88;98204.91;5124621;28;20311;-59
2022/03/14 02:36:40;;;;;;;;;;;;;;;5.59;55.70;98213.22;5106471;28;19966;-59
2022/03/14 02:39:08;;;;;;;;;;;;;;;5.62;55.73;98222.56;5127015;28;19924;-59
2022/03/14 02:41:34;;;;;;;;;;;;;;;5.61;55.74;98229.69;5120959;28;19935;-59
2022/03/14 02:44:01;;;;;;;;;;;;;;;5.52;56.26;98228.38;5105787;28;19931;-60
2022/03/14 02:46:29;;;;;;;;;;;;;;;4.93;58.79;98215.00;5106586;28;19923;-60
2022/03/14 02:48:55;;;;;;;;;;;;;;;4.84;60.11;98227.72;5122182;28;19987;-60
2022/03/14 02:51:22;;;;;;;;;;;;;;;5.08;59.57;98234.78;5121014;28;19920;-59
2022/03/14 02:53:48;;;;;;;;;;;;;;;5.25;58.78;98233.19;5121563;28;19924;-60
2022/03/14 02:56:16;;;;;;;;;;;;;;;5.29;58.11;98234.34;5124161;28;19931;-59
2022/03/14 02:58:43;;;;;;;;;;;;;;;4.91;59.60;98239.06;5123629;28;20534;-59
2022/03/14 03:01:10;;;;;;;;;;;;;;;5.07;59.39;98251.72;5102115;28;19928;-59
2022/03/14 03:03:37;;;;;;;;;;;;;;;5.21;58.79;98252.38;5120356;28;19924;-60
2022/03/14 03:06:03;;;;;;;;;;;;;;;5.28;58.54;98255.78;5123288;28;19924;-59
2022/03/14 03:08:29;;;;;;;;;;;;;;;5.32;58.47;98260.38;5129813;28;19931;-59
2022/03/14 03:10:58;;;;;;;;;;;;;;;5.38;58.68;98261.38;5121854;28;19927;-60
2022/03/14 03:13:28;;;;;;;;;;;;;;;5.38;58.62;98272.75;5120513;28;19959;-58
2022/03/14 03:15:54;;;;;;;;;;;;;;;5.35;58.80;98273.19;5104242;28;19955;-58
2022/03/14 03:18:22;;;;;;;;;;;;;;;5.33;58.86;98275.25;5123967;28;19923;-58
2022/03/14 03:20:48;;;;;;;;;;;;;;;5.34;59.05;98287.47;5122554;28;19924;-60
2022/03/14 03:23:15;;;;;;;;;;;;;;;5.34;59.10;98282.19;5102508;28;19934;-60
2022/03/14 03:25:41;;;;;;;;;;;;;;;5.38;58.85;98283.34;5120424;28;19938;-60
2022/03/14 03:28:07;;;;;;;;;;;;;;;5.36;58.70;98282.75;5123686;28;20022;-60
2022/03/14 03:30:35;;;;;;;;;;;;;;;5.36;58.91;98296.00;5123655;28;19924;-60
2022/03/14 03:33:01;;;;;;;;;;;;;;;5.33;59.59;98307.03;5120566;28;19947;-58
2022/03/14 03:35:28;;;;;;;;;;;;;;;5.24;60.51;98307.53;5120279;28;19960;-58
2022/03/14 03:37:54;;;;;;;;;;;;;;;5.22;61.14;98315.72;5127841;28;19926;-59
2022/03/14 03:40:20;;;;;;;;;;;;;;;5.23;61.28;98321.81;5123422;28;19967;-59
2022/03/14 03:42:47;;;;;;;;;;;;;;;5.20;61.35;98332.84;5121927;28;19987;-59
2022/03/14 03:45:14;;;;;;;;;;;;;;;5.19;61.44;98336.53;5120205;28;19928;-59
2022/03/14 03:47:41;;;;;;;;;;;;;;;5.16;61.39;98340.41;5120106;28;19924;-59
2022/03/14 03:50:08;;;;;;;;;;;;;;;5.20;61.56;98344.22;5123248;28;19935;-60
2022/03/14 03:52:35;;;;;;;;;;;;;;;5.22;61.03;98355.44;5123461;28;19995;-59
2022/03/14 03:55:01;;;;;;;;;;;;;;;5.19;61.04;98363.81;5120308;28;19928;-59
2022/03/14 03:57:27;;;;;;;;;;;;;;;5.13;60.92;98364.69;5119990;28;19983;-58
2022/03/14 03:59:54;;;;;;;;;;;;;;;5.13;61.02;98366.50;5121659;28;19928;-59
2022/03/14 04:02:20;;;;;;;;;;;;;;;5.10;60.49;98373.06;5123329;28;19924;-59
2022/03/14 04:04:48;;;;;;;;;;;;;;;5.11;60.55;98373.84;5122543;28;19955;-59
2022/03/14 04:07:19;;;;;;;;;;;;;;;5.00;60.96;98371.91;5122057;28;19996;-59
2022/03/14 04:09:46;;;;;;;;;;;;;;;4.76;61.75;98374.34;5122861;28;19920;-59
2022/03/14 04:12:13;;;;;;;;;;;;;;;4.56;62.82;98372.81;5122807;28;19923;-59
2022/03/14 04:14:39;;;;;;;;;;;;;;;4.55;63.88;98376.53;5104719;28;19927;-59
2022/03/14 04:17:07;;;;;;;;;;;;;;;4.58;63.92;98378.75;5110679;28;19928;-59
2022/03/14 04:19:41;;;;;;;;;;;;;;;4.71;63.12;98381.28;5110827;28;19969;-58
2022/03/14 04:22:09;;;;;;;;;;;;;;;4.82;62.64;98385.91;5110764;28;19984;-59
2022/03/14 04:24:37;;;;;;;;;;;;;;;4.89;62.49;98400.69;5110623;28;19993;-59
2022/03/14 04:27:04;;;;;;;;;;;;;;;4.95;62.52;98404.34;5110618;28;19924;-59
2022/03/14 04:29:30;;;;;;;;;;;;;;;5.01;62.24;98406.13;5110656;28;20435;-58
2022/03/14 04:31:57;;;;;;;;;;;;;;;4.99;62.55;98416.09;5121333;28;20469;-59
2022/03/14 04:34:23;;;;;;;;;;;;;;;4.97;62.68;98412.84;5122666;28;19923;-59
2022/03/14 04:36:50;;;;;;;;;;;;;;;4.97;62.50;98414.69;5121175;28;19995;-59
2022/03/14 04:39:17;;;;;;;;;;;;;;;4.96;62.57;98427.09;5124845;28;19991;-59
2022/03/14 04:41:44;;;;;;;;;;;;;;;4.99;62.10;98431.97;5119028;28;19926;-59
2022/03/14 04:44:11;;;;;;;;;;;;;;;4.99;61.89;98447.03;5122201;28;20011;-59
2022/03/14 04:46:37;;;;;;;;;;;;;;;4.96;62.11;98452.75;5122415;28;19935;-59
2022/03/14 04:49:05;;;;;;;;;;;;;;;4.74;64.22;98460.22;5119087;28;19924;-59
2022/03/14 04:51:32;;;;;;;;;;;;;;;4.57;64.91;98477.63;5100991;28;19928;-59
2022/03/14 04:53:58;;;;;;;;;;;;;;;4.71;64.64;98481.81;5120956;28;19931;-59
2022/03/14 04:56:26;;;;;;;;;;;;;;;4.83;63.85;98485.41;5122355;28;20454;-59
2022/03/14 04:58:52;;;;;;;;;;;;;;;4.83;63.24;98485.41;5120529;28;19924;-59
2022/03/14 05:01:21;;;;;;;;;;;;;;;4.79;63.70;98487.69;5118443;28;19924;-59
2022/03/14 05:03:47;;;;;;;;;;;;;;;4.84;63.45;98497.63;5101358;28;19932;-59
2022/03/14 05:06:13;;;;;;;;;;;;;;;4.88;62.81;98509.41;5121932;28;19926;-59
2022/03/14 05:08:40;;;;;;;;;;;;;;;4.89;62.82;98508.38;5128071;28;20011;-58
2022/03/14 05:11:06;;;;;;;;;;;;;;;4.92;62.51;98505.31;5110115;28;19935;-60
2022/03/14 05:13:34;;;;;;;;;;;;;;;4.86;62.42;98506.97;5110209;28;19931;-58
2022/03/14 05:16:00;;;;;;;;;;;;;;;4.88;62.49;98525.28;5110065;28;19935;-59
2022/03/14 05:18:27;;;;;;;;;;;;;;;4.87;61.89;98534.25;5109973;28;19959;-59
2022/03/14 05:20:53;;;;;;;;;;;;;;;4.89;61.70;98537.47;5109693;28;19924;-59
2022/03/14 05:23:20;;;;;;;;;;;;;;;4.74;61.50;98524.53;5109890;28;19931;-58
2022/03/14 05:25:46;;;;;;;;;;;;;;;4.80;61.50;98550.16;5110124;28;19931;-58
2022/03/14 05:28:13;;;;;;;;;;;;;;;4.88;61.34;98572.94;5110000;28;19959;-59
2022/03/14 05:30:40;;;;;;;;;;;;;;;4.87;61.26;98579.25;5110076;28;19952;-60
2022/03/14 05:33:07;;;;;;;;;;;;;;;4.91;61.44;98577.81;5118640;28;20427;-59
2022/03/14 05:35:33;;;;;;;;;;;;;;;4.97;60.67;98584.91;5118668;28;19999;-59
2022/03/14 05:37:59;;;;;;;;;;;;;;;4.74;62.21;98576.63;5127099;28;19987;-60
2022/03/14 05:40:26;;;;;;;;;;;;;;;4.37;65.72;98586.09;5121914;28;19983;-58
2022/03/14 05:42:53;;;;;;;;;;;;;;;3.97;70.63;98585.34;5102141;28;19931;-58
2022/03/14 05:45:20;;;;;;;;;;;;;;;4.15;71.32;98603.22;5118501;28;20023;-59
2022/03/14 05:47:48;;;;;;;;;;;;;;;3.97;73.46;98611.78;5119508;28;20555;-59
2022/03/14 05:50:14;;;;;;;;;;;;;;;4.07;73.50;98614.00;5122072;28;19987;-59
2022/03/14 05:52:41;;;;;;;;;;;;;;;4.26;71.73;98621.94;5122176;28;19996;-59
2022/03/14 05:55:08;;;;;;;;;;;;;;;3.97;76.15;98610.97;5118405;28;19955;-59
2022/03/14 05:57:35;;;;;;;;;;;;;;;3.52;79.81;98610.75;5118724;28;19956;-58
2022/03/14 06:00:01;;;;;;;;;;;;;;;3.34;81.12;98622.88;5121225;28;19928;-59
2022/03/14 06:02:28;;;;;;;;;;;;;;;3.20;81.23;98630.75;5121837;28;20007;-59
2022/03/14 06:04:55;;;;;;;;;;;;;;;3.36;80.68;98615.56;5101628;28;19950;-59
2022/03/14 06:07:22;;;;;;;;;;;;;;;3.87;76.79;98645.72;5125276;28;19924;-58
2022/03/14 06:09:49;;;;;;;;;;;;;;;4.14;73.83;98650.00;5125334;28;20026;-58
2022/03/14 06:12:23;;;;;;;;;;;;;;;4.29;72.13;98677.06;5125066;28;19923;-59
2022/03/14 06:14:51;;;;;;;;;;;;;;;4.23;71.44;98677.88;5105995;28;19955;-59
2022/03/14 06:17:17;;;;;;;;;;;;;;;4.46;70.25;98669.50;5121739;28;20545;-60
2022/03/14 06:19:44;;;;;;;;;;;;;;;4.30;71.22;98675.22;5122045;28;19946;-59
2022/03/14 06:22:11;;;;;;;;;;;;;;;4.34;70.67;98690.47;5124979;28;19959;-60
2022/03/14 06:24:38;;;;;;;;;;;;;;;4.53;69.24;98695.94;5125303;28;19923;-58
2022/03/14 06:27:04;;;;;;;;;;;;;;;4.60;69.29;98697.56;5121744;28;19920;-59
2022/03/14 06:29:31;;;;;;;;;;;;;;;4.48;69.66;98695.75;5121555;28;19924;-59
2022/03/14 06:31:59;;;;;;;;;;;;;;;4.80;67.91;98693.06;5123779;28;19928;-59
2022/03/14 06:34:26;;;;;;;;;;;;;;;4.86;66.86;98702.81;5124871;28;19947;-60
2022/03/14 06:36:52;;;;;;;;;;;;;;;4.60;68.18;98696.75;5123150;28;19924;-60
2022/03/14 06:39:20;;;;;;;;;;;;;;;4.80;67.51;98713.41;5127262;28;19920;-60
2022/03/14 06:41:47;;;;;;;;;;;;;;;5.00;66.54;98719.47;5121765;28;19920;-60
2022/03/14 06:44:14;;;;;;;;;;;;;;;5.14;65.80;98731.66;5124765;28;19924;-58
2022/03/14 06:46:40;;;;;;;;;;;;;;;5.23;66.55;98719.81;5124629;28;19946;-58
2022/03/14 06:49:07;;;;;;;;;;;;;;;4.97;66.62;98719.09;5121112;28;19991;-59
2022/03/14 06:51:33;;;;;;;;;;;;;;;4.81;66.81;98722.97;5120842;28;19924;-58
2022/03/14 06:54:00;;;;;;;;;;;;;;;5.00;67.11;98737.19;5123515;28;20007;-58
2022/03/14 06:56:27;;;;;;;;;;;;;;;4.64;68.22;98738.47;5124402;28;19947;-59
2022/03/14 06:58:54;;;;;;;;;;;;;;;4.53;69.45;98746.19;5122284;28;19919;-60
2022/03/14 07:01:22;;;;;;;;;;;;;;;4.25;71.00;98743.75;5120683;28;19967;-59
2022/03/14 07:03:48;;;;;;;;;;;;;;;4.50;70.82;98754.53;5121774;28;20006;-59
2022/03/14 07:06:15;;;;;;;;;;;;;;;4.76;68.19;98765.13;5124199;28;19991;-59
2022/03/14 07:08:41;;;;;;;;;;;;;;;4.86;67.75;98768.97;5130202;28;19951;-59
2022/03/14 07:11:07;;;;;;;;;;;;;;;5.17;66.61;98767.53;5120413;28;19931;-59
2022/03/14 07:13:35;;;;;;;;;;;;;;;5.07;67.28;98754.72;5120591;28;19931;-58
2022/03/14 07:16:01;;;;;;;;;;;;;;;4.98;67.21;98753.31;5123331;28;19935;-59
2022/03/14 07:18:30;;;;;;;;;;;;;;;5.03;65.80;98772.00;5124324;28;19931;-60
2022/03/14 07:20:56;;;;;;;;;;;;;;;5.11;65.08;98781.56;5121833;28;19941;-60
2022/03/14 07:23:23;;;;;;;;;;;;;;;5.14;65.00;98787.25;5120575;28;19951;-60
2022/03/14 07:25:50;;;;;;;;;;;;;;;5.38;64.51;98778.63;5121406;28;19977;-60
2022/03/14 07:28:17;;;;;;;;;;;;;;;5.26;63.68;98792.75;5123845;28;19932;-60
2022/03/14 07:30:45;;;;;;;;;;;;;;;5.18;63.25;98804.38;5123481;28;19954;-60
2022/03/14 07:33:11;;;;;;;;;;;;;;;5.17;63.99;98810.66;5119978;28;20677;-59
2022/03/14 07:35:38;;;;;;;;;;;;;;;5.19;64.25;98819.25;5120065;28;19987;-59
2022/03/14 07:38:05;;;;;;;;;;;;;;;4.77;66.71;98832.91;5129155;28;19924;-60
2022/03/14 07:40:31;;;;;;;;;;;;;;;4.88;66.13;98833.13;5123280;28;19995;-59
2022/03/14 07:42:59;;;;;;;;;;;;;;;4.91;67.69;98831.91;5120412;28;19999;-60
2022/03/14 07:45:26;;;;;;;;;;;;;;;5.05;66.63;98827.38;5119515;28;19924;-60
2022/03/14 07:47:54;;;;;;;;;;;;;;;5.09;66.90;98834.72;5120832;28;19931;-60
2022/03/14 07:50:21;;;;;;;;;;;;;;;4.99;67.87;98829.03;5122922;28;19923;-60
2022/03/14 07:52:48;;;;;;;;;;;;;;;5.15;67.26;98825.97;5121928;28;19995;-60
2022/03/14 07:55:14;;;;;;;;;;;;;;;5.29;66.39;98818.81;5119345;28;19924;-59
2022/03/14 07:57:41;;;;;;;;;;;;;;;5.36;67.05;98828.38;5119148;28;19952;-60
2022/03/14 08:00:09;;;;;;;;;;;;;;;5.27;66.55;98826.97;5119115;28;20307;-60
2022/03/14 08:02:36;;;;;;;;;;;;;;;5.49;66.08;98819.56;5118861;28;19956;-58
2022/03/14 08:05:04;;;;;;;;;;;;;;;5.56;64.73;98825.69;5121306;28;19933;-60
2022/03/14 08:07:30;;;;;;;;;;;;;;;5.41;63.89;98830.41;5122033;28;20097;-58
2022/03/14 08:09:57;;;;;;;;;;;;;;;5.44;63.59;98838.75;5122222;28;19924;-59
2022/03/14 08:12:23;;;;;;;;;;;;;;;5.58;63.30;98839.53;5122536;28;19924;-59
2022/03/14 08:14:49;;;;;;;;;;;;;;;5.55;62.18;98841.78;5121259;28;19987;-59
2022/03/14 08:17:16;;;;;;;;;;;;;;;5.44;61.70;98849.34;5119226;28;20019;-60
2022/03/14 08:19:42;;;;;;;;;;;;;;;5.65;61.61;98856.22;5119352;28;19943;-59
2022/03/14 08:22:10;;;;;;;;;;;;;;;5.67;62.44;98861.31;5122541;28;19945;-59
2022/03/14 08:24:36;;;;;;;;;;;;;;;5.77;62.83;98865.16;5122528;28;19923;-59
2022/03/14 08:27:03;;;;;;;;;;;;;;;5.78;62.37;98882.69;5119333;28;19959;-59
2022/03/14 08:29:30;;;;;;;;;;;;;;;5.99;62.66;98892.25;5118405;28;20060;-58
2022/03/14 08:31:58;;;;;;;;;;;;;;;6.14;62.20;98902.56;5120921;28;19981;-59
2022/03/14 08:34:24;;;;;;;;;;;;;;;5.95;64.22;98907.75;5122396;28;19932;-59
2022/03/14 08:36:50;;;;;;;;;;;;;;;6.02;65.43;98910.38;5120968;28;20022;-59
2022/03/14 08:39:18;;;;;;;;;;;;;;;6.14;65.38;98905.22;5124961;28;19920;-59
2022/03/14 08:41:44;;;;;;;;;;;;;;;6.17;65.51;98908.28;5118978;28;19924;-59
2022/03/14 08:44:11;;;;;;;;;;;;;;;6.35;65.56;98907.59;5122165;28;20331;-59
2022/03/14 08:46:38;;;;;;;;;;;;;;;6.48;65.54;98910.19;5122182;28;19959;-60
2022/03/14 08:49:04;;;;;;;;;;;;;;;6.42;64.11;98906.53;5118922;28;20024;-60
2022/03/14 08:51:30;;;;;;;;;;;;;;;6.48;63.73;98910.19;5118697;28;19990;-60
2022/03/14 08:53:57;;;;;;;;;;;;;;;6.62;63.72;98909.09;5120842;28;19930;-60
2022/03/14 08:56:24;;;;;;;;;;;;;;;6.79;62.62;98914.69;5122519;28;19959;-60
2022/03/14 08:58:51;;;;;;;;;;;;;;;6.83;61.81;98913.25;5120779;28;20283;-59
2022/03/14 09:01:17;;;;;;;;;;;;;;;6.92;62.14;98918.09;5118618;28;19935;-59
2022/03/14 09:03:43;;;;;;;;;;;;;;;6.92;60.92;98918.09;5118969;28;19959;-59
2022/03/14 09:06:10;;;;;;;;;;;;;;;6.86;60.92;98923.44;5122084;28;19923;-59
2022/03/14 09:08:37;;;;;;;;;;;;;;;6.94;61.43;98926.63;5128191;28;19919;-59
2022/03/14 09:11:03;;;;;;;;;;;;;;;7.07;62.01;98925.72;5118974;28;19924;-60
2022/03/14 09:13:31;;;;;;;;;;;;;;;7.41;61.76;98927.91;5118623;28;19963;-60
2022/03/14 09:15:58;;;;;;;;;;;;;;;7.58;60.01;98930.84;5120747;28;19946;-59
2022/03/14 09:18:28;;;;;;;;;;;;;;;7.71;60.13;98922.72;5121928;28;19951;-59
2022/03/14 09:20:54;;;;;;;;;;;;;;;7.81;59.83;98917.72;5119884;28;19919;-59
2022/03/14 09:23:21;;;;;;;;;;;;;;;7.86;60.50;98914.41;5118260;28;19924;-59
2022/03/14 09:25:47;;;;;;;;;;;;;;;7.76;61.59;98919.41;5119321;28;19924;-59
2022/03/14 09:28:14;;;;;;;;;;;;;;;7.91;61.57;98925.19;5121966;28;19924;-59
2022/03/14 09:30:43;;;;;;;;;;;;;;;8.06;61.96;98934.44;5122090;28;19931;-60
2022/03/14 09:33:09;;;;;;;;;;;;;;;8.04;69.34;98933.03;5109788;28;19998;-60
2022/03/14 09:35:36;;;;;;;;;;;;;;;8.32;70.61;98936.00;5109743;28;20015;-58
2022/03/14 09:38:02;;;;;;;;;;;;;;;8.32;72.60;98945.84;5118906;28;19924;-59
2022/03/14 09:40:30;;;;;;;;;;;;;;;8.36;75.86;98945.16;5122762;28;19947;-58
2022/03/14 09:42:59;;;;;;;;;;;;;;;8.63;73.40;98943.78;5123188;28;19924;-59
2022/03/14 09:45:25;;;;;;;;;;;;;;;8.63;69.76;98943.78;5122217;28;19955;-59
2022/03/14 09:47:56;;;;;;;;;;;;;;;8.67;70.83;98939.63;5123415;28;19923;-60
2022/03/14 09:50:26;;;;;;;;;;;;;;;8.54;70.25;98939.81;5125428;28;19987;-61
2022/03/14 09:52:54;;;;;;;;;;;;;;;8.63;70.02;98946.44;5123859;28;19991;-60
2022/03/14 09:55:20;;;;;;;;;;;;;;;8.64;72.20;98955.25;5122043;28;19985;-60
2022/03/14 09:57:48;;;;;;;;;;;;;;;8.82;72.90;98946.44;5122559;28;19924;-60
2022/03/14 10:00:15;;;;;;;;;;;;;;;8.89;72.87;98953.28;5125265;28;20201;-59
2022/03/14 10:02:41;;;;;;;;;;;;;;;9.01;74.00;98946.13;5124735;28;19923;-59
2022/03/14 10:05:10;;;;;;;;;;;;;;;9.30;74.96;98954.31;5121294;28;19959;-59
2022/03/14 10:07:36;;;;;;;;;;;;;;;9.40;75.30;98944.72;5126859;28;20480;-59
2022/03/14 10:10:05;;;;;;;;;;;;;;;9.58;75.87;98951.78;5124867;28;19923;-59
2022/03/14 10:12:32;;;;;;;;;;;;;;;10.07;78.76;98950.50;5124803;28;19924;-59
2022/03/14 10:14:58;;;;;;;;;;;;;;;10.18;81.09;98955.06;5122147;28;19931;-59
2022/03/14 10:17:25;;;;;;;;;;;;;;;9.72;79.25;98948.66;5121278;28;19920;-59
2022/03/14 10:19:55;;;;;;;;;;;;;;;10.35;75.90;98947.94;5104541;28;19924;-60
2022/03/14 10:22:23;;;;;;;;;;;;;;;10.45;78.34;98948.13;5124737;28;19935;-59
2022/03/14 10:24:54;;;;;;;;;;;;;;;10.14;75.36;98946.72;5123385;28;19990;-59
2022/03/14 10:27:21;;;;;;;;;;;;;;;10.07;77.26;98950.50;5121055;28;20022;-59
2022/03/14 10:29:47;;;;;;;;;;;;;;;10.02;80.08;98953.06;5121857;28;19928;-60
2022/03/14 10:32:19;;;;;;;;;;;;;;;9.83;81.93;98954.25;5124245;28;19959;-59
2022/03/14 10:34:52;;;;;;;;;;;;;;;9.99;84.41;98953.53;5123797;28;19924;-60
2022/03/14 10:37:19;;;;;;;;;;;;;;;10.07;85.94;98955.84;5123869;28;19924;-59
2022/03/14 10:39:46;;;;;;;;;;;;;;;10.32;87.11;98953.75;5124031;28;19924;-59
2022/03/14 10:42:15;;;;;;;;;;;;;;;10.22;86.66;98957.00;5105736;28;19928;-58
2022/03/14 10:44:42;;;;;;;;;;;;;;;10.61;85.90;98960.75;5124181;28;19927;-59
2022/03/14 10:47:10;;;;;;;;;;;;;;;10.42;85.65;98967.31;5120574;28;19959;-59
2022/03/14 10:49:37;;;;;;;;;;;;;;;10.32;86.45;98964.41;5120468;28;19942;-59
2022/03/14 10:52:06;;;;;;;;;;;;;;;10.45;86.97;98974.84;5123000;28;19959;-59
2022/03/14 10:54:35;;;;;;;;;;;;;;;10.37;84.52;98977.09;5123995;28;19924;-59
2022/03/14 10:57:04;;;;;;;;;;;;;;;10.64;85.10;98972.81;5120892;28;19924;-59
2022/03/14 10:59:34;;;;;;;;;;;;;;;10.80;86.93;98978.22;5107298;28;19992;-60
2022/03/14 11:02:21;;;;;;;;;;;;;;;10.35;85.17;98974.63;5119784;28;19934;-59
2022/03/14 11:05:09;;;;;;;;;;;;;;;10.39;83.58;98977.66;5119131;28;19924;-60
2022/03/14 11:07:56;;;;;;;;;;;;;;;9.67;88.87;98983.22;5122307;28;19946;-59
2022/03/14 11:10:43;;;;;;;;;;;;;;;10.30;86.74;98982.53;5122410;28;19931;-60
2022/03/14 11:13:29;;;;;;;;;;;;;;;11.16;90.27;98970.84;5119052;28;19943;-61
2022/03/14 11:15:56;;;;;;;;;;;;;;;11.24;88.06;98989.97;5119758;28;19934;-59
2022/03/14 11:18:23;;;;;;;;;;;;;;;11.27;95.83;98981.47;5119853;28;19924;-60
2022/03/14 11:20:49;;;;;;;;;;;;;;;10.90;93.04;98969.56;5120805;28;19931;-60
2022/03/14 11:23:16;;;;;;;;;;;;;;;11.26;99.71;98974.50;5123172;28;19991;-59
2022/03/14 11:25:44;;;;;;;;;;;;;;;11.32;100.00;98980.78;5123043;28;19970;-59
2022/03/14 11:28:11;;;;;;;;;;;;;;;11.44;100.00;98983.38;5119588;28;19928;-59
2022/03/14 11:30:39;;;;;;;;;;;;;;;10.34;98.35;98969.53;5119654;28;19987;-60
2022/03/14 11:33:06;;;;;;;;;;;;;;;10.40;100.00;98968.59;5122932;28;19930;-60
2022/03/14 11:35:32;;;;;;;;;;;;;;;9.98;100.00;98970.59;5123296;28;19956;-60
2022/03/14 11:37:59;;;;;;;;;;;;;;;10.33;100.00;98967.91;5120735;28;20423;-60
2022/03/14 11:40:26;;;;;;;;;;;;;;;10.28;100.00;98960.59;5119629;28;19924;-59
2022/03/14 11:42:52;;;;;;;;;;;;;;;10.65;100.00;98958.41;5119202;28;19924;-60
2022/03/14 11:45:19;;;;;;;;;;;;;;;11.67;100.00;98959.94;5115828;28;19919;-59
2022/03/14 11:47:47;;;;;;;;;;;;;;;10.65;100.00;98955.72;5121957;28;19923;-58
2022/03/14 11:50:14;;;;;;;;;;;;;;;11.73;100.00;98961.66;5119131;28;19932;-57
2022/03/14 11:52:42;;;;;;;;;;;;;;;12.11;100.00;98955.53;5119352;28;19963;-58
2022/03/14 11:55:18;;;;;;;;;;;;;;;12.17;98.79;98953.72;5119219;28;19966;-58
2022/03/14 11:57:45;;;;;;;;;;;;;;;12.27;98.24;98961.91;5119512;28;20018;-57
2022/03/14 12:00:32;;;;;;;;;;;;;;;11.80;98.00;98953.47;5122792;28;20564;-57
2022/03/14 12:03:01;;;;;;;;;;;;;;;11.66;97.94;98955.66;5119374;28;19924;-58
2022/03/14 12:05:42;;;;;;;;;;;;;;;11.23;96.43;98955.47;5119082;28;19943;-58
2022/03/14 12:08:10;;;;;;;;;;;;;;;10.84;100.00;98941.94;5110388;28;19944;-57
2022/03/14 12:10:37;;;;;;;;;;;;;;;11.25;98.92;98954.19;5110867;28;19995;-58
2022/03/14 12:13:03;;;;;;;;;;;;;;;11.85;98.86;98945.53;5110615;28;20006;-59
2022/03/14 12:15:39;;;;;;;;;;;;;;;12.27;95.81;98940.47;5117357;28;19995;-59
2022/03/14 12:18:20;;;;;;;;;;;;;;;12.31;95.10;98946.97;5119073;28;19963;-58
2022/03/14 12:20:48;;;;;;;;;;;;;;;12.54;94.08;98943.19;5118767;28;19952;-57
2022/03/14 12:23:20;;;;;;;;;;;;;;;12.94;91.46;98939.09;5122303;28;20031;-57
2022/03/14 12:25:46;;;;;;;;;;;;;;;12.79;90.02;98938.94;5121684;28;20026;-57
2022/03/14 12:28:29;;;;;;;;;;;;;;;12.98;88.74;98937.53;5118856;28;19924;-57
2022/03/14 12:31:09;;;;;;;;;;;;;;;13.28;86.71;98931.66;5120727;28;19928;-57
2022/03/14 12:33:36;;;;;;;;;;;;;;;13.25;86.96;98931.34;5122137;28;19987;-57
2022/03/14 12:36:22;;;;;;;;;;;;;;;12.80;85.98;98935.22;5119137;28;19939;-57
2022/03/14 12:39:03;;;;;;;;;;;;;;;11.85;89.80;98937.50;5119549;28;19927;-57
2022/03/14 12:41:30;;;;;;;;;;;;;;;12.29;88.28;98941.84;5122492;28;20185;-58
2022/03/14 12:43:57;;;;;;;;;;;;;;;13.00;86.34;98935.41;5111573;28;19951;-57
2022/03/14 12:46:24;;;;;;;;;;;;;;;12.95;85.97;98931.88;5118735;28;20295;-57
2022/03/14 12:48:51;;;;;;;;;;;;;;;12.93;85.71;98929.44;5119714;28;19987;-57
2022/03/14 12:51:24;;;;;;;;;;;;;;;12.98;84.92;98942.91;5121961;28;19959;-58
2022/03/14 12:53:51;;;;;;;;;;;;;;;12.75;85.06;98937.03;5120269;28;19924;-58
2022/03/14 12:56:18;;;;;;;;;;;;;;;12.67;86.29;98940.94;5118179;28;19924;-58
2022/03/14 12:58:55;;;;;;;;;;;;;;;11.28;89.21;98940.31;5118944;28;19955;-58